sensor_id;sensor_type;location;lat;lon;timestamp;temperature;humidity
52471;DHT22;38382;53.160;7.026;2022-11-15T00:00:18;7.20;99.90
52471;DHT22;38382;53.160;7.026;2022-11-15T00:02:43;7.20;99.90
52471;DHT22;38382;53.160;7.026;2022-11-15T00:05:09;7.20;99.90
52471;DHT22;38382;53.160;7.026;2022-11-15T00:07:35;7.20;99.90
52471;DHT22;38382;53.160;7.026;2022-11-15T00:10:00;7.20;99.90
52471;DHT22;38382;53.160;7.026;2022-11-15T00:12:27;7.20;99.90
52471;DHT22;38382;53.160;7.026;2022-11-15T00:14:54;7.20;99.90
52471;DHT22;38382;53.160;7.026;2022-11-15T00:17:19;7.20;99.90
52471;DHT22;38382;53.160;7.026;2022-11-15T00:19:45;7.30;99.90
52471;DHT22;38382;53.160;7.026;2022-11-15T00:22:11;7.10;99.90
52471;DHT22;38382;53.160;7.026;2022-11-15T00:24:36;7.10;99.90
52471;DHT22;38382;53.160;7.026;2022-11-15T00:27:02;7.10;99.90
52471;DHT22;38382;53.160;7.026;2022-11-15T00:29:28;7.00;99.90
52471;DHT22;38382;53.160;7.026;2022-11-15T00:31:54;7.00;99.90
52471;DHT22;38382;53.160;7.026;2022-11-15T00:34:19;7.00;99.90
52471;DHT22;38382;53.160;7.026;2022-11-15T00:36:45;6.90;99.90
52471;DHT22;38382;53.160;7.026;2022-11-15T00:39:11;6.90;99.90
52471;DHT22;38382;53.160;7.026;2022-11-15T00:41:37;6.90;99.90
52471;DHT22;38382;53.160;7.026;2022-11-15T00:44:03;6.80;99.90
52471;DHT22;38382;53.160;7.026;2022-11-15T00:46:28;6.80;99.90
52471;DHT22;38382;53.160;7.026;2022-11-15T00:48:54;6.80;99.90
52471;DHT22;38382;53.160;7.026;2022-11-15T00:51:20;6.80;99.90
52471;DHT22;38382;53.160;7.026;2022-11-15T00:53:45;6.70;99.90
52471;DHT22;38382;53.160;7.026;2022-11-15T00:56:11;6.70;99.90
52471;DHT22;38382;53.160;7.026;2022-11-15T00:58:37;6.80;99.90
52471;DHT22;38382;53.160;7.026;2022-11-15T01:01:10;6.60;99.90
52471;DHT22;38382;53.160;7.026;2022-11-15T01:03:38;6.60;99.90
52471;DHT22;38382;53.160;7.026;2022-11-15T01:06:04;6.70;99.90
52471;DHT22;38382;53.160;7.026;2022-11-15T01:08:30;6.50;99.90
52471;DHT22;38382;53.160;7.026;2022-11-15T01:11:04;6.50;99.90
52471;DHT22;38382;53.160;7.026;2022-11-15T01:13:32;6.50;99.90
52471;DHT22;38382;53.160;7.026;2022-11-15T01:15:58;6.40;99.90
52471;DHT22;38382;53.160;7.026;2022-11-15T01:18:24;6.60;99.90
52471;DHT22;38382;53.160;7.026;2022-11-15T01:20:49;6.40;99.90
52471;DHT22;38382;53.160;7.026;2022-11-15T01:23:16;6.50;99.90
52471;DHT22;38382;53.160;7.026;2022-11-15T01:25:41;6.50;99.90
52471;DHT22;38382;53.160;7.026;2022-11-15T01:28:07;6.40;99.90
52471;DHT22;38382;53.160;7.026;2022-11-15T01:30:33;6.50;99.90
52471;DHT22;38382;53.160;7.026;2022-11-15T01:32:59;6.50;99.90
52471;DHT22;38382;53.160;7.026;2022-11-15T01:35:24;7.00;99.90
52471;DHT22;38382;53.160;7.026;2022-11-15T01:37:50;6.60;99.90
52471;DHT22;38382;53.160;7.026;2022-11-15T01:40:16;6.70;99.90
52471;DHT22;38382;53.160;7.026;2022-11-15T01:42:41;6.70;99.90
52471;DHT22;38382;53.160;7.026;2022-11-15T01:45:14;6.80;99.90
52471;DHT22;38382;53.160;7.026;2022-11-15T01:47:43;6.80;99.90
52471;DHT22;38382;53.160;7.026;2022-11-15T01:50:13;6.80;99.90
52471;DHT22;38382;53.160;7.026;2022-11-15T01:52:40;6.90;99.90
52471;DHT22;38382;53.160;7.026;2022-11-15T01:55:13;6.90;99.90
52471;DHT22;38382;53.160;7.026;2022-11-15T01:57:40;7.00;99.90
52471;DHT22;38382;53.160;7.026;2022-11-15T02:00:06;6.90;99.90
52471;DHT22;38382;53.160;7.026;2022-11-15T02:02:33;6.90;99.90
52471;DHT22;38382;53.160;7.026;2022-11-15T02:04:59;7.10;99.90
52471;DHT22;38382;53.160;7.026;2022-11-15T02:07:25;7.10;99.90
52471;DHT22;38382;53.160;7.026;2022-11-15T02:09:51;7.10;99.90
52471;DHT22;38382;53.160;7.026;2022-11-15T02:12:20;7.10;99.90
52471;DHT22;38382;53.160;7.026;2022-11-15T02:14:51;7.10;99.90
52471;DHT22;38382;53.160;7.026;2022-11-15T02:25:45;7.30;99.90
52471;DHT22;38382;53.160;7.026;2022-11-15T02:31:26;7.20;99.90
52471;DHT22;38382;53.160;7.026;2022-11-15T02:34:01;7.40;99.90
52471;DHT22;38382;53.160;7.026;2022-11-15T02:39:41;7.80;99.90
52471;DHT22;38382;53.160;7.026;2022-11-15T02:42:13;7.30;99.90
52471;DHT22;38382;53.160;7.026;2022-11-15T02:45:03;7.30;99.90
52471;DHT22;38382;53.160;7.026;2022-11-15T02:47:32;7.30;99.90
52471;DHT22;38382;53.160;7.026;2022-11-15T02:50:08;7.50;99.90
52471;DHT22;38382;53.160;7.026;2022-11-15T02:52:34;7.40;99.90
52471;DHT22;38382;53.160;7.026;2022-11-15T02:55:00;7.40;99.90
52471;DHT22;38382;53.160;7.026;2022-11-15T02:57:51;7.40;99.90
52471;DHT22;38382;53.160;7.026;2022-11-15T03:00:19;7.40;99.90
52471;DHT22;38382;53.160;7.026;2022-11-15T03:08:31;7.50;99.90
52471;DHT22;38382;53.160;7.026;2022-11-15T03:13:58;7.40;99.90
52471;DHT22;38382;53.160;7.026;2022-11-15T03:16:37;7.50;99.90
52471;DHT22;38382;53.160;7.026;2022-11-15T03:19:23;7.50;99.90
52471;DHT22;38382;53.160;7.026;2022-11-15T03:21:52;7.50;99.90
52471;DHT22;38382;53.160;7.026;2022-11-15T03:24:21;7.70;99.90
52471;DHT22;38382;53.160;7.026;2022-11-15T03:26:49;7.50;99.90
52471;DHT22;38382;53.160;7.026;2022-11-15T03:29:28;7.70;99.90
52471;DHT22;38382;53.160;7.026;2022-11-15T03:32:18;8.10;99.90
52471;DHT22;38382;53.160;7.026;2022-11-15T03:35:01;7.50;99.90
52471;DHT22;38382;53.160;7.026;2022-11-15T03:40:06;7.50;99.90
52471;DHT22;38382;53.160;7.026;2022-11-15T03:42:42;7.50;99.90
52471;DHT22;38382;53.160;7.026;2022-11-15T03:45:23;7.60;99.90
52471;DHT22;38382;53.160;7.026;2022-11-15T03:48:20;7.50;99.90
52471;DHT22;38382;53.160;7.026;2022-11-15T03:50:47;7.60;99.90
52471;DHT22;38382;53.160;7.026;2022-11-15T03:53:13;7.60;99.90
52471;DHT22;38382;53.160;7.026;2022-11-15T03:55:39;7.60;99.90
52471;DHT22;38382;53.160;7.026;2022-11-15T03:58:05;7.60;99.90
52471;DHT22;38382;53.160;7.026;2022-11-15T04:00:31;7.50;99.90
52471;DHT22;38382;53.160;7.026;2022-11-15T04:02:57;7.50;99.90
52471;DHT22;38382;53.160;7.026;2022-11-15T04:05:23;7.60;99.90
52471;DHT22;38382;53.160;7.026;2022-11-15T04:07:49;7.50;99.90
52471;DHT22;38382;53.160;7.026;2022-11-15T04:10:15;7.60;99.90
52471;DHT22;38382;53.160;7.026;2022-11-15T04:12:43;7.60;99.90
52471;DHT22;38382;53.160;7.026;2022-11-15T04:15:11;7.60;99.90
52471;DHT22;38382;53.160;7.026;2022-11-15T04:17:41;7.80;99.90
52471;DHT22;38382;53.160;7.026;2022-11-15T04:23:08;7.60;99.90
52471;DHT22;38382;53.160;7.026;2022-11-15T04:25:54;7.60;99.90
52471;DHT22;38382;53.160;7.026;2022-11-15T04:28:20;7.60;99.90
52471;DHT22;38382;53.160;7.026;2022-11-15T04:30:46;7.70;99.90
52471;DHT22;38382;53.160;7.026;2022-11-15T04:33:12;7.70;99.90
52471;DHT22;38382;53.160;7.026;2022-11-15T04:35:38;7.70;99.90
52471;DHT22;38382;53.160;7.026;2022-11-15T04:38:06;7.70;99.90
52471;DHT22;38382;53.160;7.026;2022-11-15T04:40:33;7.70;99.90
52471;DHT22;38382;53.160;7.026;2022-11-15T04:42:59;7.70;99.90
52471;DHT22;38382;53.160;7.026;2022-11-15T04:45:25;7.70;99.90
52471;DHT22;38382;53.160;7.026;2022-11-15T04:47:50;7.70;99.90
52471;DHT22;38382;53.160;7.026;2022-11-15T04:50:16;7.70;99.90
52471;DHT22;38382;53.160;7.026;2022-11-15T04:52:49;7.70;99.90
52471;DHT22;38382;53.160;7.026;2022-11-15T04:55:15;7.80;99.90
52471;DHT22;38382;53.160;7.026;2022-11-15T04:57:41;7.70;99.90
52471;DHT22;38382;53.160;7.026;2022-11-15T05:00:09;7.80;99.90
52471;DHT22;38382;53.160;7.026;2022-11-15T05:02:36;7.70;99.90
52471;DHT22;38382;53.160;7.026;2022-11-15T05:05:20;7.70;99.90
52471;DHT22;38382;53.160;7.026;2022-11-15T05:07:45;7.80;99.90
52471;DHT22;38382;53.160;7.026;2022-11-15T05:10:11;7.70;99.90
52471;DHT22;38382;53.160;7.026;2022-11-15T05:12:37;7.80;99.90
52471;DHT22;38382;53.160;7.026;2022-11-15T05:15:03;7.80;99.90
52471;DHT22;38382;53.160;7.026;2022-11-15T05:17:29;7.80;99.90
52471;DHT22;38382;53.160;7.026;2022-11-15T05:19:55;7.80;99.90
52471;DHT22;38382;53.160;7.026;2022-11-15T05:22:21;8.00;99.90
52471;DHT22;38382;53.160;7.026;2022-11-15T05:24:46;7.80;99.90
52471;DHT22;38382;53.160;7.026;2022-11-15T05:27:12;7.90;99.90
52471;DHT22;38382;53.160;7.026;2022-11-15T05:29:38;7.90;99.90
52471;DHT22;38382;53.160;7.026;2022-11-15T05:32:05;7.90;99.90
52471;DHT22;38382;53.160;7.026;2022-11-15T05:34:32;7.90;99.90
52471;DHT22;38382;53.160;7.026;2022-11-15T05:36:58;8.00;99.90
52471;DHT22;38382;53.160;7.026;2022-11-15T05:39:24;7.90;99.90
52471;DHT22;38382;53.160;7.026;2022-11-15T05:41:54;8.10;99.90
52471;DHT22;38382;53.160;7.026;2022-11-15T05:44:23;8.10;99.90
52471;DHT22;38382;53.160;7.026;2022-11-15T05:46:50;8.00;99.90
52471;DHT22;38382;53.160;7.026;2022-11-15T05:49:23;8.10;99.90
52471;DHT22;38382;53.160;7.026;2022-11-15T05:51:51;8.10;99.90
52471;DHT22;38382;53.160;7.026;2022-11-15T05:54:19;8.10;99.90
52471;DHT22;38382;53.160;7.026;2022-11-15T05:56:46;8.20;99.90
52471;DHT22;38382;53.160;7.026;2022-11-15T05:59:12;8.20;99.90
52471;DHT22;38382;53.160;7.026;2022-11-15T06:01:39;8.30;99.90
52471;DHT22;38382;53.160;7.026;2022-11-15T06:04:05;8.30;99.90
52471;DHT22;38382;53.160;7.026;2022-11-15T06:06:30;8.40;99.90
52471;DHT22;38382;53.160;7.026;2022-11-15T06:08:56;8.40;99.90
52471;DHT22;38382;53.160;7.026;2022-11-15T06:11:22;8.40;99.90
52471;DHT22;38382;53.160;7.026;2022-11-15T06:13:47;8.50;99.90
52471;DHT22;38382;53.160;7.026;2022-11-15T06:16:13;8.60;99.90
52471;DHT22;38382;53.160;7.026;2022-11-15T06:18:39;8.60;99.90
52471;DHT22;38382;53.160;7.026;2022-11-15T06:21:06;8.60;99.90
52471;DHT22;38382;53.160;7.026;2022-11-15T06:23:33;8.70;99.90
52471;DHT22;38382;53.160;7.026;2022-11-15T06:26:00;8.70;99.90
52471;DHT22;38382;53.160;7.026;2022-11-15T06:28:29;8.70;99.90
52471;DHT22;38382;53.160;7.026;2022-11-15T06:30:55;8.70;99.90
52471;DHT22;38382;53.160;7.026;2022-11-15T06:33:21;9.00;99.90
52471;DHT22;38382;53.160;7.026;2022-11-15T06:35:47;8.80;99.90
52471;DHT22;38382;53.160;7.026;2022-11-15T06:38:13;8.80;99.90
52471;DHT22;38382;53.160;7.026;2022-11-15T06:40:39;8.80;99.90
52471;DHT22;38382;53.160;7.026;2022-11-15T06:43:06;8.90;99.90
52471;DHT22;38382;53.160;7.026;2022-11-15T06:45:32;8.90;99.90
52471;DHT22;38382;53.160;7.026;2022-11-15T06:47:58;9.00;99.90
52471;DHT22;38382;53.160;7.026;2022-11-15T06:50:24;9.00;99.90
52471;DHT22;38382;53.160;7.026;2022-11-15T06:52:50;9.00;99.90
52471;DHT22;38382;53.160;7.026;2022-11-15T06:55:16;9.10;99.90
52471;DHT22;38382;53.160;7.026;2022-11-15T06:57:52;9.10;99.90
52471;DHT22;38382;53.160;7.026;2022-11-15T07:00:19;9.10;99.90
52471;DHT22;38382;53.160;7.026;2022-11-15T07:02:45;9.20;99.90
52471;DHT22;38382;53.160;7.026;2022-11-15T07:05:12;9.20;99.90
52471;DHT22;38382;53.160;7.026;2022-11-15T07:07:38;9.20;99.90
52471;DHT22;38382;53.160;7.026;2022-11-15T07:10:04;9.20;99.90
52471;DHT22;38382;53.160;7.026;2022-11-15T07:12:30;9.20;99.90
52471;DHT22;38382;53.160;7.026;2022-11-15T07:14:56;9.30;99.90
52471;DHT22;38382;53.160;7.026;2022-11-15T07:17:22;9.30;99.90
52471;DHT22;38382;53.160;7.026;2022-11-15T07:19:48;9.30;99.90
52471;DHT22;38382;53.160;7.026;2022-11-15T07:22:13;9.30;99.90
52471;DHT22;38382;53.160;7.026;2022-11-15T07:24:39;9.40;99.90
52471;DHT22;38382;53.160;7.026;2022-11-15T07:27:05;9.40;99.90
52471;DHT22;38382;53.160;7.026;2022-11-15T07:29:30;9.40;99.90
52471;DHT22;38382;53.160;7.026;2022-11-15T07:31:56;9.50;99.90
52471;DHT22;38382;53.160;7.026;2022-11-15T07:34:22;9.50;99.90
52471;DHT22;38382;53.160;7.026;2022-11-15T07:36:49;9.60;99.90
52471;DHT22;38382;53.160;7.026;2022-11-15T07:39:15;9.60;99.90
52471;DHT22;38382;53.160;7.026;2022-11-15T07:41:40;9.60;99.90
52471;DHT22;38382;53.160;7.026;2022-11-15T07:44:06;9.60;99.90
52471;DHT22;38382;53.160;7.026;2022-11-15T07:46:32;9.70;99.90
52471;DHT22;38382;53.160;7.026;2022-11-15T07:48:58;9.70;99.90
52471;DHT22;38382;53.160;7.026;2022-11-15T07:51:23;9.80;99.90
52471;DHT22;38382;53.160;7.026;2022-11-15T07:53:49;9.80;99.90
52471;DHT22;38382;53.160;7.026;2022-11-15T07:56:15;9.90;99.90
52471;DHT22;38382;53.160;7.026;2022-11-15T07:58:41;10.00;99.90
52471;DHT22;38382;53.160;7.026;2022-11-15T08:01:09;10.00;99.90
52471;DHT22;38382;53.160;7.026;2022-11-15T08:03:35;10.00;99.90
52471;DHT22;38382;53.160;7.026;2022-11-15T08:06:01;10.10;99.90
52471;DHT22;38382;53.160;7.026;2022-11-15T08:08:27;10.20;99.90
52471;DHT22;38382;53.160;7.026;2022-11-15T08:10:53;10.20;99.90
52471;DHT22;38382;53.160;7.026;2022-11-15T08:13:19;10.30;99.90
52471;DHT22;38382;53.160;7.026;2022-11-15T08:15:45;10.30;99.90
52471;DHT22;38382;53.160;7.026;2022-11-15T08:18:15;10.40;99.90
52471;DHT22;38382;53.160;7.026;2022-11-15T08:20:42;10.40;99.90
52471;DHT22;38382;53.160;7.026;2022-11-15T08:23:10;10.40;99.90
52471;DHT22;38382;53.160;7.026;2022-11-15T08:25:37;10.40;99.90
52471;DHT22;38382;53.160;7.026;2022-11-15T08:28:05;10.50;99.90
52471;DHT22;38382;53.160;7.026;2022-11-15T08:30:36;10.50;99.90
52471;DHT22;38382;53.160;7.026;2022-11-15T08:33:02;10.60;99.90
52471;DHT22;38382;53.160;7.026;2022-11-15T08:35:28;10.60;99.90
52471;DHT22;38382;53.160;7.026;2022-11-15T08:37:54;10.70;99.90
52471;DHT22;38382;53.160;7.026;2022-11-15T08:40:20;10.70;99.90
52471;DHT22;38382;53.160;7.026;2022-11-15T08:42:47;10.80;99.90
52471;DHT22;38382;53.160;7.026;2022-11-15T08:45:13;10.90;99.90
52471;DHT22;38382;53.160;7.026;2022-11-15T08:47:38;11.00;99.90
52471;DHT22;38382;53.160;7.026;2022-11-15T08:50:05;11.00;99.90
52471;DHT22;38382;53.160;7.026;2022-11-15T08:52:33;11.00;99.90
52471;DHT22;38382;53.160;7.026;2022-11-15T08:54:59;11.10;99.90
52471;DHT22;38382;53.160;7.026;2022-11-15T08:57:28;11.10;99.90
52471;DHT22;38382;53.160;7.026;2022-11-15T08:59:54;11.20;99.90
52471;DHT22;38382;53.160;7.026;2022-11-15T09:02:20;11.20;99.90
52471;DHT22;38382;53.160;7.026;2022-11-15T09:04:45;11.30;99.90
52471;DHT22;38382;53.160;7.026;2022-11-15T09:07:11;11.40;99.90
52471;DHT22;38382;53.160;7.026;2022-11-15T09:09:38;11.50;99.90
52471;DHT22;38382;53.160;7.026;2022-11-15T09:12:05;11.50;99.90
52471;DHT22;38382;53.160;7.026;2022-11-15T09:14:32;11.50;99.90
52471;DHT22;38382;53.160;7.026;2022-11-15T09:16:57;11.40;99.90
52471;DHT22;38382;53.160;7.026;2022-11-15T09:19:23;11.40;99.90
52471;DHT22;38382;53.160;7.026;2022-11-15T09:21:49;11.40;99.90
52471;DHT22;38382;53.160;7.026;2022-11-15T09:24:15;11.40;99.90
52471;DHT22;38382;53.160;7.026;2022-11-15T09:26:42;11.40;99.90
52471;DHT22;38382;53.160;7.026;2022-11-15T09:29:08;11.40;99.90
52471;DHT22;38382;53.160;7.026;2022-11-15T09:31:34;11.40;99.90
52471;DHT22;38382;53.160;7.026;2022-11-15T09:33:59;11.50;99.90
52471;DHT22;38382;53.160;7.026;2022-11-15T09:36:25;11.60;99.90
52471;DHT22;38382;53.160;7.026;2022-11-15T09:38:51;11.60;99.90
52471;DHT22;38382;53.160;7.026;2022-11-15T09:41:25;11.60;99.90
52471;DHT22;38382;53.160;7.026;2022-11-15T09:49:31;11.60;99.90
52471;DHT22;38382;53.160;7.026;2022-11-15T09:51:58;11.60;99.90
52471;DHT22;38382;53.160;7.026;2022-11-15T09:54:33;11.70;99.90
52471;DHT22;38382;53.160;7.026;2022-11-15T09:57:12;11.70;99.90
52471;DHT22;38382;53.160;7.026;2022-11-15T10:05:22;11.70;99.90
52471;DHT22;38382;53.160;7.026;2022-11-15T10:10:56;11.70;99.90
52471;DHT22;38382;53.160;7.026;2022-11-15T10:13:45;11.70;99.90
52471;DHT22;38382;53.160;7.026;2022-11-15T10:19:13;11.70;99.90
52471;DHT22;38382;53.160;7.026;2022-11-15T10:24:12;11.80;99.90
52471;DHT22;38382;53.160;7.026;2022-11-15T10:26:48;11.70;99.90
52471;DHT22;38382;53.160;7.026;2022-11-15T10:29:19;11.70;99.90
52471;DHT22;38382;53.160;7.026;2022-11-15T10:31:45;11.70;99.90
52471;DHT22;38382;53.160;7.026;2022-11-15T10:36:54;11.70;99.90
52471;DHT22;38382;53.160;7.026;2022-11-15T10:39:20;11.70;99.90
52471;DHT22;38382;53.160;7.026;2022-11-15T10:41:46;11.70;99.90
52471;DHT22;38382;53.160;7.026;2022-11-15T10:46:40;11.70;99.90
52471;DHT22;38382;53.160;7.026;2022-11-15T10:49:20;11.70;99.90
52471;DHT22;38382;53.160;7.026;2022-11-15T10:51:56;11.80;99.90
52471;DHT22;38382;53.160;7.026;2022-11-15T10:54:44;11.80;99.90
52471;DHT22;38382;53.160;7.026;2022-11-15T10:57:36;11.80;99.90
52471;DHT22;38382;53.160;7.026;2022-11-15T11:02:38;11.80;99.90
52471;DHT22;38382;53.160;7.026;2022-11-15T11:05:28;11.80;99.90
52471;DHT22;38382;53.160;7.026;2022-11-15T11:10:36;11.80;99.90
52471;DHT22;38382;53.160;7.026;2022-11-15T11:13:22;11.80;99.90
52471;DHT22;38382;53.160;7.026;2022-11-15T11:15:55;11.80;99.90
52471;DHT22;38382;53.160;7.026;2022-11-15T11:21:09;11.90;99.90
52471;DHT22;38382;53.160;7.026;2022-11-15T11:23:54;11.90;99.90
52471;DHT22;38382;53.160;7.026;2022-11-15T11:32:40;12.10;99.90
52471;DHT22;38382;53.160;7.026;2022-11-15T11:35:36;12.10;99.90
52471;DHT22;38382;53.160;7.026;2022-11-15T11:38:15;12.20;99.90
52471;DHT22;38382;53.160;7.026;2022-11-15T11:43:39;12.30;99.90
52471;DHT22;38382;53.160;7.026;2022-11-15T11:49:15;12.30;99.90
52471;DHT22;38382;53.160;7.026;2022-11-15T11:51:55;12.40;99.90
52471;DHT22;38382;53.160;7.026;2022-11-15T11:54:29;12.40;99.90
52471;DHT22;38382;53.160;7.026;2022-11-15T11:56:58;12.50;99.90
52471;DHT22;38382;53.160;7.026;2022-11-15T11:59:43;12.60;99.90
52471;DHT22;38382;53.160;7.026;2022-11-15T12:02:36;12.70;99.90
52471;DHT22;38382;53.160;7.026;2022-11-15T12:07:56;12.90;99.90
52471;DHT22;38382;53.160;7.026;2022-11-15T12:10:28;13.00;99.90
52471;DHT22;38382;53.160;7.026;2022-11-15T12:13:11;13.30;99.90
52471;DHT22;38382;53.160;7.026;2022-11-15T12:18:37;13.50;99.90
52471;DHT22;38382;53.160;7.026;2022-11-15T12:27:17;13.20;99.90
52471;DHT22;38382;53.160;7.026;2022-11-15T12:29:49;13.00;99.90
52471;DHT22;38382;53.160;7.026;2022-11-15T12:32:35;12.90;99.90
52471;DHT22;38382;53.160;7.026;2022-11-15T12:35:03;12.90;99.90
52471;DHT22;38382;53.160;7.026;2022-11-15T12:42:44;12.80;99.90
52471;DHT22;38382;53.160;7.026;2022-11-15T12:58:46;14.00;99.90
52471;DHT22;38382;53.160;7.026;2022-11-15T13:06:58;14.10;99.90
52471;DHT22;38382;53.160;7.026;2022-11-15T13:12:11;13.90;99.90
52471;DHT22;38382;53.160;7.026;2022-11-15T13:17:54;13.60;99.90
52471;DHT22;38382;53.160;7.026;2022-11-15T13:20:31;13.50;99.90
52471;DHT22;38382;53.160;7.026;2022-11-15T13:28:43;13.30;99.90
52471;DHT22;38382;53.160;7.026;2022-11-15T13:31:26;13.30;99.90
52471;DHT22;38382;53.160;7.026;2022-11-15T13:33:56;13.30;99.90
52471;DHT22;38382;53.160;7.026;2022-11-15T13:36:25;13.50;99.90
52471;DHT22;38382;53.160;7.026;2022-11-15T13:39:01;13.70;99.90
52471;DHT22;38382;53.160;7.026;2022-11-15T13:41:44;13.80;99.90
52471;DHT22;38382;53.160;7.026;2022-11-15T13:44:27;13.80;99.90
52471;DHT22;38382;53.160;7.026;2022-11-15T13:47:14;13.70;99.90
52471;DHT22;38382;53.160;7.026;2022-11-15T13:49:42;13.60;99.90
52471;DHT22;38382;53.160;7.026;2022-11-15T13:52:12;13.40;99.90
52471;DHT22;38382;53.160;7.026;2022-11-15T13:54:54;13.30;99.90
52471;DHT22;38382;53.160;7.026;2022-11-15T13:57:35;13.20;99.90
52471;DHT22;38382;53.160;7.026;2022-11-15T14:00:05;13.10;99.90
52471;DHT22;38382;53.160;7.026;2022-11-15T14:02:34;13.10;99.90
52471;DHT22;38382;53.160;7.026;2022-11-15T14:07:38;12.90;99.90
52471;DHT22;38382;53.160;7.026;2022-11-15T14:10:24;12.90;99.90
52471;DHT22;38382;53.160;7.026;2022-11-15T14:12:50;12.80;99.90
52471;DHT22;38382;53.160;7.026;2022-11-15T14:15:30;12.80;99.90
52471;DHT22;38382;53.160;7.026;2022-11-15T14:17:56;12.70;99.90
52471;DHT22;38382;53.160;7.026;2022-11-15T14:23:05;12.60;99.90
52471;DHT22;38382;53.160;7.026;2022-11-15T14:25:32;12.60;99.90
52471;DHT22;38382;53.160;7.026;2022-11-15T14:28:12;12.50;99.90
52471;DHT22;38382;53.160;7.026;2022-11-15T14:30:39;12.50;99.90
52471;DHT22;38382;53.160;7.026;2022-11-15T14:33:37;12.50;99.90
52471;DHT22;38382;53.160;7.026;2022-11-15T14:36:17;12.40;99.90
52471;DHT22;38382;53.160;7.026;2022-11-15T14:38:44;12.30;99.90
52471;DHT22;38382;53.160;7.026;2022-11-15T14:43:43;12.20;99.90
52471;DHT22;38382;53.160;7.026;2022-11-15T14:46:09;12.20;99.90
52471;DHT22;38382;53.160;7.026;2022-11-15T14:48:34;12.10;99.90
52471;DHT22;38382;53.160;7.026;2022-11-15T14:51:00;12.00;99.90
52471;DHT22;38382;53.160;7.026;2022-11-15T14:53:26;11.90;99.90
52471;DHT22;38382;53.160;7.026;2022-11-15T14:55:52;11.90;99.90
52471;DHT22;38382;53.160;7.026;2022-11-15T14:58:18;11.80;99.90
52471;DHT22;38382;53.160;7.026;2022-11-15T15:00:44;11.70;99.90
52471;DHT22;38382;53.160;7.026;2022-11-15T15:03:09;11.70;99.90
52471;DHT22;38382;53.160;7.026;2022-11-15T15:05:38;11.60;99.90
52471;DHT22;38382;53.160;7.026;2022-11-15T15:08:05;11.50;99.90
52471;DHT22;38382;53.160;7.026;2022-11-15T15:10:34;11.50;99.90
52471;DHT22;38382;53.160;7.026;2022-11-15T15:13:00;11.40;99.90
52471;DHT22;38382;53.160;7.026;2022-11-15T15:15:33;11.30;99.90
52471;DHT22;38382;53.160;7.026;2022-11-15T15:17:59;11.30;99.90
52471;DHT22;38382;53.160;7.026;2022-11-15T15:20:24;11.20;99.90
52471;DHT22;38382;53.160;7.026;2022-11-15T15:22:50;11.10;99.90
52471;DHT22;38382;53.160;7.026;2022-11-15T15:25:22;11.00;99.90
52471;DHT22;38382;53.160;7.026;2022-11-15T15:27:48;11.10;99.90
52471;DHT22;38382;53.160;7.026;2022-11-15T15:30:14;10.90;99.90
52471;DHT22;38382;53.160;7.026;2022-11-15T15:32:40;10.80;99.90
52471;DHT22;38382;53.160;7.026;2022-11-15T15:35:06;10.70;99.90
52471;DHT22;38382;53.160;7.026;2022-11-15T15:37:35;10.70;99.90
52471;DHT22;38382;53.160;7.026;2022-11-15T15:40:01;10.60;99.90
52471;DHT22;38382;53.160;7.026;2022-11-15T15:42:27;10.50;99.90
52471;DHT22;38382;53.160;7.026;2022-11-15T15:44:53;10.40;99.90
52471;DHT22;38382;53.160;7.026;2022-11-15T15:47:20;10.40;99.90
52471;DHT22;38382;53.160;7.026;2022-11-15T15:49:47;10.50;99.90
52471;DHT22;38382;53.160;7.026;2022-11-15T15:52:13;10.30;99.90
52471;DHT22;38382;53.160;7.026;2022-11-15T15:54:40;10.20;99.90
52471;DHT22;38382;53.160;7.026;2022-11-15T15:57:07;10.20;99.90
52471;DHT22;38382;53.160;7.026;2022-11-15T15:59:33;10.10;99.90
52471;DHT22;38382;53.160;7.026;2022-11-15T16:01:59;10.10;99.90
52471;DHT22;38382;53.160;7.026;2022-11-15T16:04:25;10.10;99.90
52471;DHT22;38382;53.160;7.026;2022-11-15T16:06:51;10.10;99.90
52471;DHT22;38382;53.160;7.026;2022-11-15T16:09:20;10.10;99.90
52471;DHT22;38382;53.160;7.026;2022-11-15T16:12:06;10.10;99.90
52471;DHT22;38382;53.160;7.026;2022-11-15T16:14:32;10.20;99.90
52471;DHT22;38382;53.160;7.026;2022-11-15T16:16:57;10.20;99.90
52471;DHT22;38382;53.160;7.026;2022-11-15T16:19:23;10.10;99.90
52471;DHT22;38382;53.160;7.026;2022-11-15T16:21:50;10.10;99.90
52471;DHT22;38382;53.160;7.026;2022-11-15T16:24:18;10.10;99.90
52471;DHT22;38382;53.160;7.026;2022-11-15T16:26:44;10.20;99.90
52471;DHT22;38382;53.160;7.026;2022-11-15T16:29:11;10.10;99.90
52471;DHT22;38382;53.160;7.026;2022-11-15T16:31:37;10.10;99.90
52471;DHT22;38382;53.160;7.026;2022-11-15T16:34:02;10.10;99.90
52471;DHT22;38382;53.160;7.026;2022-11-15T16:36:32;10.10;99.90
52471;DHT22;38382;53.160;7.026;2022-11-15T16:38:59;10.00;99.90
52471;DHT22;38382;53.160;7.026;2022-11-15T16:43:52;9.90;99.90
52471;DHT22;38382;53.160;7.026;2022-11-15T16:46:21;10.00;99.90
52471;DHT22;38382;53.160;7.026;2022-11-15T16:48:47;9.80;99.90
52471;DHT22;38382;53.160;7.026;2022-11-15T16:51:14;9.80;99.90
52471;DHT22;38382;53.160;7.026;2022-11-15T16:53:40;9.80;99.90
52471;DHT22;38382;53.160;7.026;2022-11-15T16:56:28;9.80;99.90
52471;DHT22;38382;53.160;7.026;2022-11-15T16:58:56;9.70;99.90
52471;DHT22;38382;53.160;7.026;2022-11-15T17:01:34;9.70;99.90
52471;DHT22;38382;53.160;7.026;2022-11-15T17:04:11;9.80;99.90
52471;DHT22;38382;53.160;7.026;2022-11-15T17:06:42;9.80;99.90
52471;DHT22;38382;53.160;7.026;2022-11-15T17:09:34;9.80;99.90
52471;DHT22;38382;53.160;7.026;2022-11-15T17:12:00;9.80;99.90
52471;DHT22;38382;53.160;7.026;2022-11-15T17:14:25;9.80;99.90
52471;DHT22;38382;53.160;7.026;2022-11-15T17:16:51;9.80;99.90
52471;DHT22;38382;53.160;7.026;2022-11-15T17:19:19;9.90;99.90
52471;DHT22;38382;53.160;7.026;2022-11-15T17:21:46;9.90;99.90
52471;DHT22;38382;53.160;7.026;2022-11-15T17:24:14;9.90;99.90
52471;DHT22;38382;53.160;7.026;2022-11-15T17:26:40;9.90;99.90
52471;DHT22;38382;53.160;7.026;2022-11-15T17:29:07;9.80;99.90
52471;DHT22;38382;53.160;7.026;2022-11-15T17:31:37;9.80;99.90
52471;DHT22;38382;53.160;7.026;2022-11-15T17:34:04;9.80;99.90
52471;DHT22;38382;53.160;7.026;2022-11-15T17:36:30;9.80;99.90
52471;DHT22;38382;53.160;7.026;2022-11-15T17:38:56;9.80;99.90
52471;DHT22;38382;53.160;7.026;2022-11-15T17:41:22;9.80;99.90
52471;DHT22;38382;53.160;7.026;2022-11-15T17:43:48;9.90;99.90
52471;DHT22;38382;53.160;7.026;2022-11-15T17:46:17;9.90;99.90
52471;DHT22;38382;53.160;7.026;2022-11-15T17:48:44;9.90;99.90
52471;DHT22;38382;53.160;7.026;2022-11-15T17:51:12;9.90;99.90
52471;DHT22;38382;53.160;7.026;2022-11-15T17:53:40;10.00;99.90
52471;DHT22;38382;53.160;7.026;2022-11-15T17:56:10;10.00;99.90
52471;DHT22;38382;53.160;7.026;2022-11-15T17:58:36;10.00;99.90
52471;DHT22;38382;53.160;7.026;2022-11-15T18:03:41;10.10;99.90
52471;DHT22;38382;53.160;7.026;2022-11-15T18:06:08;10.00;99.90